메인 페이지
METAR-TAF:

METAR-TAF

공항 :

디야르바키르, 터키

위도: 37-53N, 경도: 040-11E, 고도: 686m

현재 날씨관측

예보는 15분 전, 16:20시(UTC)에 발표되었습니다.
북북동3kt북북서풍과 북동풍을 오가는
온도 20°C
습도 35%
기압 1020 hPa
시정 10km 이상
1500m 미만 상공 구름 및 적란운 없음

METAR: LTCC 211620Z 03003KT 340V040 CAVOK 20/04 Q1020 NOSIG

시각: 19:35 (16:35 UTC)

예보

예보는 5 시간 55분 전, 10:40시(UTC)에 발표되었습니다.
예보 대상 시간: 21일 12시부터 22일 12시까지 (UTC)
북북서6kt
시정 10km 이상
1500m 미만 상공 구름 및 적란운 없음

TAF: LTCC 211040Z 2112/2212 34006KT CAVOK

4,000개 이상의 공항 관측 자료 및 예보 (METAR 및 TAF 보고).

지도상에서 검색 가능한 기상관측소가 노란 점과 빨간 점으로 표시되어 있습니다.

기상관측소 명을 보려면 표시 위로 마우스를 이동하세요.

날씨 관측과 예보를 보려면 클릭하세요.

지도 변경 : 확대하려면 엑스 표시가 있는 녹색 버튼, 축소하려면 빼기 표시가 있는 녹색 버튼, 다음 페이지의 지도를 보려면 녹색 화살표를 클릭하세요.


METAR-TAF: